Terminal Aerodrome Forecast
Issued by NWS Albany, NY

Home | Current Version | Previous Version | Text Only | Print | Product List | Glossary On
Versions: 1 2 3 4 5 6 7 8 9 10 11 12 13 14 15 16 17 18 19 20
000
FTUS41 KALY 290535
TAFGFL
TAF
KGFL 290535Z 2906/3006 00000KT 4SM BR SCT005
      TEMPO 2906/2909 2SM BR BKN005
     FM290900 00000KT 3SM BR SCT004
      TEMPO 2909/2912 3/4SM BR VV004
     FM291300 VRB03KT P6SM SCT200
     FM291700 19005KT P6SM FEW060 SCT250
     FM300100 00000KT P6SM SKC=

USA.gov is the U.S. government's official web portal to all federal, state and local government web resources and services.